La Mesilla, New Mexico
Current Conditions -  °F | °C
As of 10:55 PM on Sunday 19 Oct 2014 (Local Time) from KLAM Reporting Station
Clear Clear  
Wind Chill: 53°   Ceiling: Unl
Heat Index: 53°   Visibility: 10mi
Dew Point: 37°   Wind: 5mph
Humidity: 56%   Direction: 330°NNW
Pressure: 30.24"   Gusts: NA
Location:  35.9775°N, 106.158°W
Report Text: KLAM 200455Z AUTO 33004KT 10SM CLR 12/03 A3024 RMK AO2 T01160030
Loading
Personal Weather Stations






























Interactive Weather Map
Tropical Storm Tracking
New forecast layout! Learn more

10-Day Weather Forecast

Advertisements
Track Severe Weather on mobile